Aviation Digital Data Service (ADDS)

Output produced by METARs form (1413 UTC 27 November 2014)
found at http://aviationweather.gov/adds/metars/
 
KBDR 271136Z 2712/2812 30009KT P6SM FEW025 OVC080 
     TEMPO 2713/2715 5SM -SHSN BKN025 
     FM271500 32008KT P6SM BKN080